sensor_id;sensor_type;location;lat;lon;timestamp;P1;durP1;ratioP1;P2;durP2;ratioP2
41921;SDS011;27609;51.002;5.354;2023-01-04T00:01:00;6.88;;;2.25;;
41921;SDS011;27609;51.002;5.354;2023-01-04T00:03:27;6.97;;;1.65;;
41921;SDS011;27609;51.002;5.354;2023-01-04T00:05:52;7.00;;;2.00;;
41921;SDS011;27609;51.002;5.354;2023-01-04T00:08:18;3.60;;;1.40;;
41921;SDS011;27609;51.002;5.354;2023-01-04T00:10:44;5.15;;;1.27;;
41921;SDS011;27609;51.002;5.354;2023-01-04T00:13:09;10.25;;;2.15;;
41921;SDS011;27609;51.002;5.354;2023-01-04T00:15:35;2.33;;;1.60;;
41921;SDS011;27609;51.002;5.354;2023-01-04T00:18:01;6.50;;;2.33;;
41921;SDS011;27609;51.002;5.354;2023-01-04T00:20:26;6.90;;;1.88;;
41921;SDS011;27609;51.002;5.354;2023-01-04T00:22:52;7.80;;;2.03;;
41921;SDS011;27609;51.002;5.354;2023-01-04T00:25:18;6.90;;;1.60;;
41921;SDS011;27609;51.002;5.354;2023-01-04T00:27:43;5.25;;;1.60;;
41921;SDS011;27609;51.002;5.354;2023-01-04T00:30:10;5.63;;;1.92;;
41921;SDS011;27609;51.002;5.354;2023-01-04T00:32:37;6.40;;;1.83;;
41921;SDS011;27609;51.002;5.354;2023-01-04T00:35:02;6.28;;;1.20;;
41921;SDS011;27609;51.002;5.354;2023-01-04T00:37:29;11.75;;;1.58;;
41921;SDS011;27609;51.002;5.354;2023-01-04T00:39:55;7.60;;;2.60;;
41921;SDS011;27609;51.002;5.354;2023-01-04T00:42:21;8.13;;;2.60;;
41921;SDS011;27609;51.002;5.354;2023-01-04T00:44:46;8.68;;;2.35;;
41921;SDS011;27609;51.002;5.354;2023-01-04T00:47:12;6.53;;;1.88;;
41921;SDS011;27609;51.002;5.354;2023-01-04T00:49:38;3.47;;;1.70;;
41921;SDS011;27609;51.002;5.354;2023-01-04T00:52:03;3.80;;;1.42;;
41921;SDS011;27609;51.002;5.354;2023-01-04T00:54:29;7.57;;;2.08;;
41921;SDS011;27609;51.002;5.354;2023-01-04T00:56:55;6.82;;;2.13;;
41921;SDS011;27609;51.002;5.354;2023-01-04T00:59:21;6.40;;;2.13;;
41921;SDS011;27609;51.002;5.354;2023-01-04T01:01:47;5.13;;;2.00;;
41921;SDS011;27609;51.002;5.354;2023-01-04T01:04:14;8.73;;;2.20;;
41921;SDS011;27609;51.002;5.354;2023-01-04T01:06:42;11.02;;;2.92;;
41921;SDS011;27609;51.002;5.354;2023-01-04T01:09:07;11.13;;;2.85;;
41921;SDS011;27609;51.002;5.354;2023-01-04T01:11:33;6.38;;;2.05;;
41921;SDS011;27609;51.002;5.354;2023-01-04T01:14:00;5.95;;;1.90;;
41921;SDS011;27609;51.002;5.354;2023-01-04T01:16:26;6.05;;;2.42;;
41921;SDS011;27609;51.002;5.354;2023-01-04T01:18:52;8.07;;;1.92;;
41921;SDS011;27609;51.002;5.354;2023-01-04T01:21:19;5.03;;;1.70;;
41921;SDS011;27609;51.002;5.354;2023-01-04T01:23:47;3.95;;;1.45;;
41921;SDS011;27609;51.002;5.354;2023-01-04T01:26:15;10.23;;;2.28;;
41921;SDS011;27609;51.002;5.354;2023-01-04T01:28:43;5.70;;;1.98;;
41921;SDS011;27609;51.002;5.354;2023-01-04T01:31:10;8.82;;;1.80;;
41921;SDS011;27609;51.002;5.354;2023-01-04T01:33:38;3.33;;;1.55;;
41921;SDS011;27609;51.002;5.354;2023-01-04T01:36:05;7.95;;;1.65;;
41921;SDS011;27609;51.002;5.354;2023-01-04T01:38:32;4.45;;;1.38;;
41921;SDS011;27609;51.002;5.354;2023-01-04T01:40:58;5.68;;;1.50;;
41921;SDS011;27609;51.002;5.354;2023-01-04T01:43:45;6.22;;;1.60;;
41921;SDS011;27609;51.002;5.354;2023-01-04T01:46:16;3.72;;;1.83;;
41921;SDS011;27609;51.002;5.354;2023-01-04T01:48:48;4.75;;;1.48;;
41921;SDS011;27609;51.002;5.354;2023-01-04T01:51:16;3.85;;;1.20;;
41921;SDS011;27609;51.002;5.354;2023-01-04T01:53:43;2.00;;;1.10;;
41921;SDS011;27609;51.002;5.354;2023-01-04T01:58:43;2.88;;;0.95;;
41921;SDS011;27609;51.002;5.354;2023-01-04T02:01:11;3.47;;;0.75;;
41921;SDS011;27609;51.002;5.354;2023-01-04T02:03:38;4.88;;;1.27;;
41921;SDS011;27609;51.002;5.354;2023-01-04T02:06:07;2.97;;;0.82;;
41921;SDS011;27609;51.002;5.354;2023-01-04T02:08:38;4.65;;;0.95;;
41921;SDS011;27609;51.002;5.354;2023-01-04T02:11:06;2.58;;;0.95;;
41921;SDS011;27609;51.002;5.354;2023-01-04T02:13:32;2.38;;;0.80;;
41921;SDS011;27609;51.002;5.354;2023-01-04T02:19:05;5.25;;;0.70;;
41921;SDS011;27609;51.002;5.354;2023-01-04T02:30:07;4.00;;;0.70;;
41921;SDS011;27609;51.002;5.354;2023-01-04T02:37:50;1.63;;;0.40;;
41921;SDS011;27609;51.002;5.354;2023-01-04T02:43:17;3.53;;;0.63;;
41921;SDS011;27609;51.002;5.354;2023-01-04T02:46:24;0.60;;;0.38;;
41921;SDS011;27609;51.002;5.354;2023-01-04T02:48:57;3.17;;;0.70;;
41921;SDS011;27609;51.002;5.354;2023-01-04T02:51:44;1.60;;;0.40;;
41921;SDS011;27609;51.002;5.354;2023-01-04T02:54:27;0.30;;;0.30;;
41921;SDS011;27609;51.002;5.354;2023-01-04T02:59:32;1.75;;;0.90;;
41921;SDS011;27609;51.002;5.354;2023-01-04T03:02:23;3.10;;;0.70;;
41921;SDS011;27609;51.002;5.354;2023-01-04T03:13:52;0.35;;;0.32;;
41921;SDS011;27609;51.002;5.354;2023-01-04T03:16:22;0.45;;;0.45;;
41921;SDS011;27609;51.002;5.354;2023-01-04T03:18:50;3.83;;;1.05;;
41921;SDS011;27609;51.002;5.354;2023-01-04T03:21:19;1.55;;;0.32;;
41921;SDS011;27609;51.002;5.354;2023-01-04T03:23:48;1.77;;;0.50;;
41921;SDS011;27609;51.002;5.354;2023-01-04T03:26:38;3.05;;;0.50;;
41921;SDS011;27609;51.002;5.354;2023-01-04T03:29:33;1.00;;;1.00;;
41921;SDS011;27609;51.002;5.354;2023-01-04T03:32:39;6.07;;;1.10;;
41921;SDS011;27609;51.002;5.354;2023-01-04T03:35:41;2.03;;;1.08;;
41921;SDS011;27609;51.002;5.354;2023-01-04T03:38:25;0.98;;;0.73;;
41921;SDS011;27609;51.002;5.354;2023-01-04T03:44:09;1.08;;;0.95;;
41921;SDS011;27609;51.002;5.354;2023-01-04T03:47:18;3.50;;;0.70;;
41921;SDS011;27609;51.002;5.354;2023-01-04T03:50:33;3.10;;;0.68;;
41921;SDS011;27609;51.002;5.354;2023-01-04T03:53:01;1.92;;;1.60;;
41921;SDS011;27609;51.002;5.354;2023-01-04T03:55:29;2.55;;;0.90;;
41921;SDS011;27609;51.002;5.354;2023-01-04T03:57:55;2.55;;;1.15;;
41921;SDS011;27609;51.002;5.354;2023-01-04T04:00:23;0.98;;;0.98;;
41921;SDS011;27609;51.002;5.354;2023-01-04T04:02:48;1.75;;;1.65;;
41921;SDS011;27609;51.002;5.354;2023-01-04T04:05:19;6.60;;;1.42;;
41921;SDS011;27609;51.002;5.354;2023-01-04T04:08:04;1.33;;;0.98;;
41921;SDS011;27609;51.002;5.354;2023-01-04T04:10:48;3.30;;;1.25;;
41921;SDS011;27609;51.002;5.354;2023-01-04T04:13:14;5.95;;;1.70;;
41921;SDS011;27609;51.002;5.354;2023-01-04T04:15:40;1.35;;;1.25;;
41921;SDS011;27609;51.002;5.354;2023-01-04T04:18:06;1.60;;;1.50;;
41921;SDS011;27609;51.002;5.354;2023-01-04T04:20:31;5.07;;;1.55;;
41921;SDS011;27609;51.002;5.354;2023-01-04T04:22:57;3.88;;;1.42;;
41921;SDS011;27609;51.002;5.354;2023-01-04T04:25:23;2.53;;;1.65;;
41921;SDS011;27609;51.002;5.354;2023-01-04T04:27:48;5.25;;;2.35;;
41921;SDS011;27609;51.002;5.354;2023-01-04T04:30:14;3.13;;;1.20;;
41921;SDS011;27609;51.002;5.354;2023-01-04T04:32:40;1.92;;;1.73;;
41921;SDS011;27609;51.002;5.354;2023-01-04T04:35:06;1.75;;;1.50;;
41921;SDS011;27609;51.002;5.354;2023-01-04T04:37:32;5.00;;;2.67;;
41921;SDS011;27609;51.002;5.354;2023-01-04T04:39:59;1.45;;;1.35;;
41921;SDS011;27609;51.002;5.354;2023-01-04T04:42:25;2.17;;;1.60;;
41921;SDS011;27609;51.002;5.354;2023-01-04T04:44:50;4.45;;;2.15;;
41921;SDS011;27609;51.002;5.354;2023-01-04T04:47:16;4.30;;;2.03;;
41921;SDS011;27609;51.002;5.354;2023-01-04T04:49:41;2.00;;;1.67;;
41921;SDS011;27609;51.002;5.354;2023-01-04T04:52:07;4.65;;;1.75;;
41921;SDS011;27609;51.002;5.354;2023-01-04T04:54:33;2.55;;;2.00;;
41921;SDS011;27609;51.002;5.354;2023-01-04T04:56:58;4.47;;;2.30;;
41921;SDS011;27609;51.002;5.354;2023-01-04T04:59:24;3.10;;;1.80;;
41921;SDS011;27609;51.002;5.354;2023-01-04T05:01:50;4.45;;;2.22;;
41921;SDS011;27609;51.002;5.354;2023-01-04T05:04:15;2.22;;;1.80;;
41921;SDS011;27609;51.002;5.354;2023-01-04T05:06:43;1.83;;;1.48;;
41921;SDS011;27609;51.002;5.354;2023-01-04T05:09:11;4.72;;;2.70;;
41921;SDS011;27609;51.002;5.354;2023-01-04T05:11:38;6.00;;;2.20;;
41921;SDS011;27609;51.002;5.354;2023-01-04T05:14:22;3.40;;;1.63;;
41921;SDS011;27609;51.002;5.354;2023-01-04T05:16:48;3.20;;;2.13;;
41921;SDS011;27609;51.002;5.354;2023-01-04T05:19:14;3.10;;;1.58;;
41921;SDS011;27609;51.002;5.354;2023-01-04T05:21:40;2.08;;;1.60;;
41921;SDS011;27609;51.002;5.354;2023-01-04T05:24:06;1.80;;;1.60;;
41921;SDS011;27609;51.002;5.354;2023-01-04T05:26:31;3.10;;;1.90;;
41921;SDS011;27609;51.002;5.354;2023-01-04T05:28:57;5.20;;;2.15;;
41921;SDS011;27609;51.002;5.354;2023-01-04T05:31:23;1.50;;;1.23;;
41921;SDS011;27609;51.002;5.354;2023-01-04T05:33:49;7.03;;;1.67;;
41921;SDS011;27609;51.002;5.354;2023-01-04T05:36:15;3.67;;;1.88;;
41921;SDS011;27609;51.002;5.354;2023-01-04T05:38:41;4.18;;;1.98;;
41921;SDS011;27609;51.002;5.354;2023-01-04T05:41:06;2.30;;;1.85;;
41921;SDS011;27609;51.002;5.354;2023-01-04T05:43:52;2.53;;;1.52;;
41921;SDS011;27609;51.002;5.354;2023-01-04T05:46:18;2.10;;;1.30;;
41921;SDS011;27609;51.002;5.354;2023-01-04T05:48:43;3.20;;;1.38;;
41921;SDS011;27609;51.002;5.354;2023-01-04T05:51:09;1.85;;;1.67;;
41921;SDS011;27609;51.002;5.354;2023-01-04T05:53:35;2.35;;;1.42;;
41921;SDS011;27609;51.002;5.354;2023-01-04T05:56:01;2.20;;;1.92;;
41921;SDS011;27609;51.002;5.354;2023-01-04T05:58:27;3.78;;;1.63;;
41921;SDS011;27609;51.002;5.354;2023-01-04T06:00:52;2.67;;;1.10;;
41921;SDS011;27609;51.002;5.354;2023-01-04T06:03:18;1.95;;;1.27;;
41921;SDS011;27609;51.002;5.354;2023-01-04T06:05:47;2.20;;;1.20;;
41921;SDS011;27609;51.002;5.354;2023-01-04T06:08:14;6.88;;;1.73;;
41921;SDS011;27609;51.002;5.354;2023-01-04T06:10:40;3.85;;;1.80;;
41921;SDS011;27609;51.002;5.354;2023-01-04T06:13:05;3.55;;;1.42;;
41921;SDS011;27609;51.002;5.354;2023-01-04T06:15:31;4.60;;;1.85;;
41921;SDS011;27609;51.002;5.354;2023-01-04T06:17:56;2.45;;;1.08;;
41921;SDS011;27609;51.002;5.354;2023-01-04T06:20:22;2.22;;;1.88;;
41921;SDS011;27609;51.002;5.354;2023-01-04T06:22:49;2.70;;;2.05;;
41921;SDS011;27609;51.002;5.354;2023-01-04T06:25:14;2.03;;;1.80;;
41921;SDS011;27609;51.002;5.354;2023-01-04T06:27:41;4.13;;;2.60;;
41921;SDS011;27609;51.002;5.354;2023-01-04T06:30:07;4.32;;;2.58;;
41921;SDS011;27609;51.002;5.354;2023-01-04T06:32:33;5.88;;;3.13;;
41921;SDS011;27609;51.002;5.354;2023-01-04T06:34:58;5.57;;;2.60;;
41921;SDS011;27609;51.002;5.354;2023-01-04T06:37:24;1.92;;;1.70;;
41921;SDS011;27609;51.002;5.354;2023-01-04T06:39:49;2.72;;;2.35;;
41921;SDS011;27609;51.002;5.354;2023-01-04T06:42:15;1.35;;;1.20;;
41921;SDS011;27609;51.002;5.354;2023-01-04T06:44:59;5.03;;;3.15;;
41921;SDS011;27609;51.002;5.354;2023-01-04T06:47:25;2.42;;;1.90;;
41921;SDS011;27609;51.002;5.354;2023-01-04T06:49:51;6.03;;;3.28;;
41921;SDS011;27609;51.002;5.354;2023-01-04T06:52:16;3.08;;;2.10;;
41921;SDS011;27609;51.002;5.354;2023-01-04T06:54:42;3.65;;;2.50;;
41921;SDS011;27609;51.002;5.354;2023-01-04T06:57:07;4.38;;;2.55;;
41921;SDS011;27609;51.002;5.354;2023-01-04T06:59:33;2.97;;;2.45;;
41921;SDS011;27609;51.002;5.354;2023-01-04T07:01:59;5.55;;;2.08;;
41921;SDS011;27609;51.002;5.354;2023-01-04T07:04:24;9.80;;;2.38;;
41921;SDS011;27609;51.002;5.354;2023-01-04T07:06:50;5.22;;;2.60;;
41921;SDS011;27609;51.002;5.354;2023-01-04T07:09:16;2.28;;;1.42;;
41921;SDS011;27609;51.002;5.354;2023-01-04T07:11:41;4.90;;;2.90;;
41921;SDS011;27609;51.002;5.354;2023-01-04T07:14:07;2.28;;;1.65;;
41921;SDS011;27609;51.002;5.354;2023-01-04T07:16:33;3.00;;;2.08;;
41921;SDS011;27609;51.002;5.354;2023-01-04T07:18:58;3.42;;;1.80;;
41921;SDS011;27609;51.002;5.354;2023-01-04T07:21:24;3.10;;;2.70;;
41921;SDS011;27609;51.002;5.354;2023-01-04T07:23:50;4.35;;;2.20;;
41921;SDS011;27609;51.002;5.354;2023-01-04T07:26:16;1.88;;;1.77;;
41921;SDS011;27609;51.002;5.354;2023-01-04T07:28:42;2.78;;;2.30;;
41921;SDS011;27609;51.002;5.354;2023-01-04T07:31:26;4.72;;;1.85;;
41921;SDS011;27609;51.002;5.354;2023-01-04T07:33:52;4.10;;;1.80;;
41921;SDS011;27609;51.002;5.354;2023-01-04T07:36:17;2.17;;;1.80;;
41921;SDS011;27609;51.002;5.354;2023-01-04T07:38:43;5.15;;;2.03;;
41921;SDS011;27609;51.002;5.354;2023-01-04T07:41:09;2.67;;;1.23;;
41921;SDS011;27609;51.002;5.354;2023-01-04T07:43:34;5.53;;;1.20;;
41921;SDS011;27609;51.002;5.354;2023-01-04T07:46:00;4.53;;;1.63;;
41921;SDS011;27609;51.002;5.354;2023-01-04T07:48:25;4.30;;;1.63;;
41921;SDS011;27609;51.002;5.354;2023-01-04T07:50:53;3.30;;;1.67;;
41921;SDS011;27609;51.002;5.354;2023-01-04T07:53:19;4.30;;;1.45;;
41921;SDS011;27609;51.002;5.354;2023-01-04T07:55:44;4.13;;;1.25;;
41921;SDS011;27609;51.002;5.354;2023-01-04T07:58:10;3.42;;;1.65;;
41921;SDS011;27609;51.002;5.354;2023-01-04T08:00:36;4.00;;;1.48;;
41921;SDS011;27609;51.002;5.354;2023-01-04T08:03:02;4.70;;;1.52;;
41921;SDS011;27609;51.002;5.354;2023-01-04T08:05:30;1.95;;;1.58;;
41921;SDS011;27609;51.002;5.354;2023-01-04T08:07:56;9.15;;;2.22;;
41921;SDS011;27609;51.002;5.354;2023-01-04T08:10:22;3.70;;;1.73;;
41921;SDS011;27609;51.002;5.354;2023-01-04T08:12:47;4.07;;;1.70;;
41921;SDS011;27609;51.002;5.354;2023-01-04T08:15:13;6.80;;;1.90;;
41921;SDS011;27609;51.002;5.354;2023-01-04T08:17:39;6.93;;;2.22;;
41921;SDS011;27609;51.002;5.354;2023-01-04T08:20:05;7.35;;;1.45;;
41921;SDS011;27609;51.002;5.354;2023-01-04T08:22:31;3.42;;;1.40;;
41921;SDS011;27609;51.002;5.354;2023-01-04T08:24:57;2.85;;;1.10;;
41921;SDS011;27609;51.002;5.354;2023-01-04T08:27:22;4.03;;;1.80;;
41921;SDS011;27609;51.002;5.354;2023-01-04T08:29:48;1.70;;;1.02;;
41921;SDS011;27609;51.002;5.354;2023-01-04T08:32:14;1.50;;;1.00;;
41921;SDS011;27609;51.002;5.354;2023-01-04T08:34:40;1.52;;;0.70;;
41921;SDS011;27609;51.002;5.354;2023-01-04T08:37:05;3.55;;;1.05;;
41921;SDS011;27609;51.002;5.354;2023-01-04T08:39:31;1.13;;;1.00;;
41921;SDS011;27609;51.002;5.354;2023-01-04T08:42:00;2.13;;;1.30;;
41921;SDS011;27609;51.002;5.354;2023-01-04T08:44:26;1.27;;;0.90;;
41921;SDS011;27609;51.002;5.354;2023-01-04T08:46:52;2.60;;;0.98;;
41921;SDS011;27609;51.002;5.354;2023-01-04T08:49:18;2.88;;;1.10;;
41921;SDS011;27609;51.002;5.354;2023-01-04T08:51:45;3.55;;;1.10;;
41921;SDS011;27609;51.002;5.354;2023-01-04T08:54:11;2.22;;;0.90;;
41921;SDS011;27609;51.002;5.354;2023-01-04T08:56:38;1.85;;;1.30;;
41921;SDS011;27609;51.002;5.354;2023-01-04T08:59:04;3.17;;;1.70;;
41921;SDS011;27609;51.002;5.354;2023-01-04T09:01:32;2.42;;;1.05;;
41921;SDS011;27609;51.002;5.354;2023-01-04T09:03:58;3.15;;;1.63;;
41921;SDS011;27609;51.002;5.354;2023-01-04T09:06:24;3.58;;;1.80;;
41921;SDS011;27609;51.002;5.354;2023-01-04T09:08:50;3.70;;;1.58;;
41921;SDS011;27609;51.002;5.354;2023-01-04T09:11:17;2.92;;;1.35;;
41921;SDS011;27609;51.002;5.354;2023-01-04T09:13:45;4.95;;;1.35;;
41921;SDS011;27609;51.002;5.354;2023-01-04T09:16:13;4.40;;;1.20;;
41921;SDS011;27609;51.002;5.354;2023-01-04T09:18:43;3.30;;;1.08;;
41921;SDS011;27609;51.002;5.354;2023-01-04T09:21:11;3.72;;;1.05;;
41921;SDS011;27609;51.002;5.354;2023-01-04T09:23:38;5.03;;;1.95;;
41921;SDS011;27609;51.002;5.354;2023-01-04T09:26:05;7.68;;;2.38;;
41921;SDS011;27609;51.002;5.354;2023-01-04T09:28:36;4.32;;;1.15;;
41921;SDS011;27609;51.002;5.354;2023-01-04T09:31:09;3.10;;;1.48;;
41921;SDS011;27609;51.002;5.354;2023-01-04T09:33:40;3.42;;;1.65;;
41921;SDS011;27609;51.002;5.354;2023-01-04T09:36:06;3.55;;;2.53;;
41921;SDS011;27609;51.002;5.354;2023-01-04T09:38:33;3.17;;;1.95;;
41921;SDS011;27609;51.002;5.354;2023-01-04T09:43:47;5.07;;;2.60;;
41921;SDS011;27609;51.002;5.354;2023-01-04T09:46:25;3.60;;;2.33;;
41921;SDS011;27609;51.002;5.354;2023-01-04T09:48:54;4.45;;;1.80;;
41921;SDS011;27609;51.002;5.354;2023-01-04T09:51:29;4.13;;;1.92;;
41921;SDS011;27609;51.002;5.354;2023-01-04T09:54:01;4.72;;;1.65;;
41921;SDS011;27609;51.002;5.354;2023-01-04T09:56:32;4.32;;;1.98;;
41921;SDS011;27609;51.002;5.354;2023-01-04T09:59:00;4.90;;;2.22;;
41921;SDS011;27609;51.002;5.354;2023-01-04T10:06:51;2.72;;;1.25;;
41921;SDS011;27609;51.002;5.354;2023-01-04T10:09:17;6.78;;;2.00;;
41921;SDS011;27609;51.002;5.354;2023-01-04T10:33:11;6.95;;;4.47;;
41921;SDS011;27609;51.002;5.354;2023-01-04T10:35:38;4.10;;;1.40;;
41921;SDS011;27609;51.002;5.354;2023-01-04T10:38:17;4.57;;;2.03;;
41921;SDS011;27609;51.002;5.354;2023-01-04T10:40:49;4.40;;;2.15;;
41921;SDS011;27609;51.002;5.354;2023-01-04T10:46:10;4.95;;;1.65;;
41921;SDS011;27609;51.002;5.354;2023-01-04T10:51:27;7.40;;;1.83;;
41921;SDS011;27609;51.002;5.354;2023-01-04T10:54:20;3.42;;;2.47;;
41921;SDS011;27609;51.002;5.354;2023-01-04T10:57:09;3.95;;;1.67;;
41921;SDS011;27609;51.002;5.354;2023-01-04T10:59:43;7.28;;;2.88;;
41921;SDS011;27609;51.002;5.354;2023-01-04T11:02:43;7.70;;;2.65;;
41921;SDS011;27609;51.002;5.354;2023-01-04T11:08:26;2.67;;;1.97;;
41921;SDS011;27609;51.002;5.354;2023-01-04T11:11:23;5.35;;;2.38;;
41921;SDS011;27609;51.002;5.354;2023-01-04T11:13:54;7.43;;;2.50;;
41921;SDS011;27609;51.002;5.354;2023-01-04T11:16:19;3.15;;;1.73;;
41921;SDS011;27609;51.002;5.354;2023-01-04T11:18:46;2.88;;;1.55;;
41921;SDS011;27609;51.002;5.354;2023-01-04T11:21:13;4.90;;;1.80;;
41921;SDS011;27609;51.002;5.354;2023-01-04T11:23:42;9.70;;;2.55;;
41921;SDS011;27609;51.002;5.354;2023-01-04T11:26:12;4.55;;;2.22;;
41921;SDS011;27609;51.002;5.354;2023-01-04T11:28:53;8.15;;;2.03;;
41921;SDS011;27609;51.002;5.354;2023-01-04T11:31:34;4.03;;;2.15;;
41921;SDS011;27609;51.002;5.354;2023-01-04T11:34:17;5.20;;;2.92;;
41921;SDS011;27609;51.002;5.354;2023-01-04T11:36:43;2.97;;;2.17;;
41921;SDS011;27609;51.002;5.354;2023-01-04T11:44:28;3.70;;;2.42;;
41921;SDS011;27609;51.002;5.354;2023-01-04T11:47:12;3.45;;;1.63;;
41921;SDS011;27609;51.002;5.354;2023-01-04T11:49:43;1.92;;;1.40;;
41921;SDS011;27609;51.002;5.354;2023-01-04T11:52:29;4.95;;;2.28;;
41921;SDS011;27609;51.002;5.354;2023-01-04T11:54:56;2.92;;;2.25;;
41921;SDS011;27609;51.002;5.354;2023-01-04T11:57:40;2.17;;;1.98;;
41921;SDS011;27609;51.002;5.354;2023-01-04T12:00:13;5.63;;;3.10;;
41921;SDS011;27609;51.002;5.354;2023-01-04T12:02:40;6.15;;;2.85;;
41921;SDS011;27609;51.002;5.354;2023-01-04T12:05:17;7.28;;;3.50;;
41921;SDS011;27609;51.002;5.354;2023-01-04T12:07:44;3.75;;;3.08;;
41921;SDS011;27609;51.002;5.354;2023-01-04T12:10:20;3.30;;;2.83;;
41921;SDS011;27609;51.002;5.354;2023-01-04T12:12:50;4.25;;;2.03;;
41921;SDS011;27609;51.002;5.354;2023-01-04T12:15:20;5.70;;;3.17;;
41921;SDS011;27609;51.002;5.354;2023-01-04T12:20:28;2.50;;;2.30;;
41921;SDS011;27609;51.002;5.354;2023-01-04T12:22:54;3.47;;;2.08;;
41921;SDS011;27609;51.002;5.354;2023-01-04T12:28:02;3.03;;;2.45;;
41921;SDS011;27609;51.002;5.354;2023-01-04T12:30:41;2.53;;;1.95;;
41921;SDS011;27609;51.002;5.354;2023-01-04T12:50:05;3.53;;;2.20;;
41921;SDS011;27609;51.002;5.354;2023-01-04T12:52:48;5.80;;;3.63;;
41921;SDS011;27609;51.002;5.354;2023-01-04T13:05:46;4.82;;;2.63;;
41921;SDS011;27609;51.002;5.354;2023-01-04T13:08:26;4.43;;;2.40;;
41921;SDS011;27609;51.002;5.354;2023-01-04T13:10:57;3.15;;;2.13;;
41921;SDS011;27609;51.002;5.354;2023-01-04T13:13:46;6.82;;;4.72;;
41921;SDS011;27609;51.002;5.354;2023-01-04T13:19:09;3.25;;;1.67;;
41921;SDS011;27609;51.002;5.354;2023-01-04T13:21:44;2.20;;;1.63;;
41921;SDS011;27609;51.002;5.354;2023-01-04T13:24:22;3.28;;;2.10;;
41921;SDS011;27609;51.002;5.354;2023-01-04T13:26:52;9.70;;;2.78;;
41921;SDS011;27609;51.002;5.354;2023-01-04T13:29:23;4.57;;;1.95;;
41921;SDS011;27609;51.002;5.354;2023-01-04T13:31:50;4.97;;;2.60;;
41921;SDS011;27609;51.002;5.354;2023-01-04T13:34:38;4.40;;;2.55;;
41921;SDS011;27609;51.002;5.354;2023-01-04T13:39:58;3.55;;;2.90;;
41921;SDS011;27609;51.002;5.354;2023-01-04T13:42:41;3.63;;;2.20;;
41921;SDS011;27609;51.002;5.354;2023-01-04T13:48:04;4.25;;;2.50;;
41921;SDS011;27609;51.002;5.354;2023-01-04T13:50:35;5.15;;;2.00;;
41921;SDS011;27609;51.002;5.354;2023-01-04T13:53:04;3.63;;;2.00;;
41921;SDS011;27609;51.002;5.354;2023-01-04T13:55:31;7.40;;;2.67;;
41921;SDS011;27609;51.002;5.354;2023-01-04T13:57:59;3.53;;;2.67;;
41921;SDS011;27609;51.002;5.354;2023-01-04T14:00:39;3.67;;;2.60;;
41921;SDS011;27609;51.002;5.354;2023-01-04T14:03:17;4.65;;;2.05;;
41921;SDS011;27609;51.002;5.354;2023-01-04T14:05:50;5.13;;;2.70;;
41921;SDS011;27609;51.002;5.354;2023-01-04T14:08:20;3.47;;;2.65;;
41921;SDS011;27609;51.002;5.354;2023-01-04T14:10:56;2.45;;;1.98;;
41921;SDS011;27609;51.002;5.354;2023-01-04T14:13:22;4.80;;;2.63;;
41921;SDS011;27609;51.002;5.354;2023-01-04T14:16:09;4.45;;;3.38;;
41921;SDS011;27609;51.002;5.354;2023-01-04T14:18:36;3.53;;;2.83;;
41921;SDS011;27609;51.002;5.354;2023-01-04T14:21:02;3.95;;;2.38;;
41921;SDS011;27609;51.002;5.354;2023-01-04T14:23:34;5.95;;;2.55;;
41921;SDS011;27609;51.002;5.354;2023-01-04T14:26:02;6.00;;;2.55;;
41921;SDS011;27609;51.002;5.354;2023-01-04T14:38:34;1.83;;;1.50;;
41921;SDS011;27609;51.002;5.354;2023-01-04T14:41:20;2.08;;;1.98;;
41921;SDS011;27609;51.002;5.354;2023-01-04T14:46:25;2.67;;;2.05;;
41921;SDS011;27609;51.002;5.354;2023-01-04T14:48:54;7.78;;;2.13;;
41921;SDS011;27609;51.002;5.354;2023-01-04T14:51:21;0.82;;;0.80;;
41921;SDS011;27609;51.002;5.354;2023-01-04T14:53:51;5.72;;;1.92;;
41921;SDS011;27609;51.002;5.354;2023-01-04T14:56:18;1.42;;;1.20;;
41921;SDS011;27609;51.002;5.354;2023-01-04T14:58:44;4.80;;;1.40;;
41921;SDS011;27609;51.002;5.354;2023-01-04T15:01:10;4.55;;;1.50;;
41921;SDS011;27609;51.002;5.354;2023-01-04T15:03:36;2.15;;;1.70;;
41921;SDS011;27609;51.002;5.354;2023-01-04T15:06:03;1.90;;;1.13;;
41921;SDS011;27609;51.002;5.354;2023-01-04T15:08:30;3.08;;;1.67;;
41921;SDS011;27609;51.002;5.354;2023-01-04T15:10:56;3.05;;;1.02;;
41921;SDS011;27609;51.002;5.354;2023-01-04T15:13:22;2.10;;;1.90;;
41921;SDS011;27609;51.002;5.354;2023-01-04T15:15:48;1.48;;;1.38;;
41921;SDS011;27609;51.002;5.354;2023-01-04T15:18:17;3.13;;;1.25;;
41921;SDS011;27609;51.002;5.354;2023-01-04T15:20:43;1.95;;;1.50;;
41921;SDS011;27609;51.002;5.354;2023-01-04T15:23:09;2.65;;;1.33;;
41921;SDS011;27609;51.002;5.354;2023-01-04T15:25:37;1.88;;;1.33;;
41921;SDS011;27609;51.002;5.354;2023-01-04T15:28:03;2.40;;;2.20;;
41921;SDS011;27609;51.002;5.354;2023-01-04T15:30:30;9.48;;;7.97;;
41921;SDS011;27609;51.002;5.354;2023-01-04T15:32:55;4.28;;;3.55;;
41921;SDS011;27609;51.002;5.354;2023-01-04T15:35:21;5.50;;;4.47;;
41921;SDS011;27609;51.002;5.354;2023-01-04T15:37:47;4.30;;;3.30;;
41921;SDS011;27609;51.002;5.354;2023-01-04T15:40:13;6.30;;;5.40;;
41921;SDS011;27609;51.002;5.354;2023-01-04T15:42:41;3.40;;;2.55;;
41921;SDS011;27609;51.002;5.354;2023-01-04T15:45:26;3.47;;;2.20;;
41921;SDS011;27609;51.002;5.354;2023-01-04T15:47:58;5.68;;;2.75;;
41921;SDS011;27609;51.002;5.354;2023-01-04T15:50:32;4.88;;;2.13;;
41921;SDS011;27609;51.002;5.354;2023-01-04T15:53:00;2.10;;;1.25;;
41921;SDS011;27609;51.002;5.354;2023-01-04T15:55:28;4.90;;;2.80;;
41921;SDS011;27609;51.002;5.354;2023-01-04T15:57:54;3.70;;;1.92;;
41921;SDS011;27609;51.002;5.354;2023-01-04T16:00:20;4.68;;;2.63;;
41921;SDS011;27609;51.002;5.354;2023-01-04T16:02:46;2.80;;;2.00;;
41921;SDS011;27609;51.002;5.354;2023-01-04T16:05:11;6.35;;;4.45;;
41921;SDS011;27609;51.002;5.354;2023-01-04T16:07:37;4.55;;;2.17;;
41921;SDS011;27609;51.002;5.354;2023-01-04T16:10:03;4.47;;;2.45;;
41921;SDS011;27609;51.002;5.354;2023-01-04T16:12:29;5.57;;;2.55;;
41921;SDS011;27609;51.002;5.354;2023-01-04T16:15:08;7.15;;;2.08;;
41921;SDS011;27609;51.002;5.354;2023-01-04T16:17:41;6.22;;;3.58;;
41921;SDS011;27609;51.002;5.354;2023-01-04T16:20:08;5.45;;;1.73;;
41921;SDS011;27609;51.002;5.354;2023-01-04T16:22:36;9.82;;;3.17;;
41921;SDS011;27609;51.002;5.354;2023-01-04T16:25:02;14.18;;;3.95;;
41921;SDS011;27609;51.002;5.354;2023-01-04T16:27:32;11.32;;;3.67;;
41921;SDS011;27609;51.002;5.354;2023-01-04T16:29:59;15.48;;;3.00;;
41921;SDS011;27609;51.002;5.354;2023-01-04T16:32:26;28.92;;;3.65;;
41921;SDS011;27609;51.002;5.354;2023-01-04T16:34:51;21.00;;;3.83;;
41921;SDS011;27609;51.002;5.354;2023-01-04T16:37:17;17.05;;;3.78;;
41921;SDS011;27609;51.002;5.354;2023-01-04T16:39:43;28.60;;;7.00;;
41921;SDS011;27609;51.002;5.354;2023-01-04T16:42:10;33.78;;;9.48;;
41921;SDS011;27609;51.002;5.354;2023-01-04T16:44:39;24.42;;;4.75;;
41921;SDS011;27609;51.002;5.354;2023-01-04T16:47:05;20.95;;;4.68;;
41921;SDS011;27609;51.002;5.354;2023-01-04T16:49:31;33.45;;;11.45;;
41921;SDS011;27609;51.002;5.354;2023-01-04T16:51:56;29.60;;;6.60;;
41921;SDS011;27609;51.002;5.354;2023-01-04T16:54:22;20.17;;;3.65;;
41921;SDS011;27609;51.002;5.354;2023-01-04T16:56:48;22.77;;;3.85;;
41921;SDS011;27609;51.002;5.354;2023-01-04T16:59:14;18.90;;;3.35;;
41921;SDS011;27609;51.002;5.354;2023-01-04T17:01:45;17.33;;;4.20;;
41921;SDS011;27609;51.002;5.354;2023-01-04T17:04:15;19.20;;;5.28;;
41921;SDS011;27609;51.002;5.354;2023-01-04T17:06:42;18.55;;;3.72;;
41921;SDS011;27609;51.002;5.354;2023-01-04T17:09:11;23.27;;;4.18;;
41921;SDS011;27609;51.002;5.354;2023-01-04T17:11:38;16.85;;;4.45;;
41921;SDS011;27609;51.002;5.354;2023-01-04T17:14:05;17.38;;;3.58;;